Time;durP1;ratioP1;P1;durP2;ratioP2;P2;SDS_P1;SDS_P2;PMS_P1;PMS_P2;Temp;Humidity;BMP_temperature;BMP_pressure;BME280_temperature;BME280_humidity;BME280_pressure;Samples;Min_cycle;Max_cycle;Signal;HPM_P1;HPM_P2
2023/08/29 00:01:55;;;;;;;15.52;7.05;;;;;;;14.99;100.00;92958.53;4959217;29;20045;-86
2023/08/29 00:04:20;;;;;;;9.48;6.68;;;;;;;14.81;100.00;92964.03;4941995;29;20046;-86
2023/08/29 00:06:46;;;;;;;7.70;6.10;;;;;;;14.84;100.00;92963.34;4941940;29;20049;-85
2023/08/29 00:09:11;;;;;;;7.53;6.57;;;;;;;14.80;100.00;92972.25;4941770;29;20177;-86
2023/08/29 00:11:36;;;;;;;7.75;5.55;;;;;;;14.54;100.00;92974.03;4941936;29;20031;-85
2023/08/29 00:14:02;;;;;;;7.53;4.97;;;;;;;14.62;100.00;92977.69;4958660;29;20028;-86
2023/08/29 00:16:28;;;;;;;6.10;4.75;;;;;;;14.84;100.00;92965.22;4958677;29;20023;-85
2023/08/29 00:18:53;;;;;;;8.52;5.53;;;;;;;14.57;100.00;92973.38;4941716;29;20114;-85
2023/08/29 00:21:19;;;;;;;7.35;4.90;;;;;;;14.44;100.00;92966.53;4941546;29;20138;-85
2023/08/29 00:23:47;;;;;;;7.40;5.35;;;;;;;14.46;100.00;92969.63;4958905;29;20035;-85
2023/08/29 00:26:12;;;;;;;9.38;4.90;;;;;;;14.51;100.00;92969.44;4941786;29;20337;-86
2023/08/29 00:28:37;;;;;;;16.08;5.50;;;;;;;14.44;100.00;92965.78;4958774;29;20039;-85
2023/08/29 00:31:03;;;;;;;5.85;4.50;;;;;;;14.56;100.00;92976.34;4941369;29;20134;-85
2023/08/29 00:33:28;;;;;;;9.00;5.07;;;;;;;14.57;100.00;92978.66;4941514;29;20039;-85
2023/08/29 00:35:54;;;;;;;10.05;5.57;;;;;;;14.59;100.00;92980.19;4959105;29;20430;-85
2023/08/29 00:38:19;;;;;;;10.23;6.20;;;;;;;14.51;100.00;92987.88;4941378;29;20035;-85
2023/08/29 00:40:44;;;;;;;10.05;5.70;;;;;;;14.56;100.00;92987.66;4944359;29;20138;-85
2023/08/29 00:43:10;;;;;;;9.18;6.53;;;;;;;14.56;100.00;92992.16;4947466;29;20038;-86
2023/08/29 00:45:37;;;;;;;7.47;5.65;;;;;;;14.31;100.00;92988.69;4965075;29;20098;-85
2023/08/29 00:48:02;;;;;;;8.32;5.20;;;;;;;14.55;100.00;92991.41;4947345;29;20035;-86
2023/08/29 00:50:29;;;;;;;8.30;5.28;;;;;;;14.43;100.00;92988.72;4931905;29;20437;-85
2023/08/29 00:52:58;;;;;;;6.20;5.22;;;;;;;14.31;100.00;92986.03;4947829;29;20089;-86
2023/08/29 00:55:28;;;;;;;5.88;4.15;;;;;;;14.57;100.00;92991.84;4947494;29;20031;-87
2023/08/29 00:57:57;;;;;;;7.25;4.63;;;;;;;14.59;100.00;92977.56;4947716;29;20345;-87
2023/08/29 01:00:27;;;;;;;7.00;4.15;;;;;;;14.49;100.00;92982.16;4954553;29;20059;-87
2023/08/29 01:02:56;;;;;;;6.20;4.50;;;;;;;14.37;100.00;92974.97;4948018;29;20463;-86
2023/08/29 01:05:22;;;;;;;7.85;4.40;;;;;;;14.04;100.00;92980.22;4926285;29;20039;-87
2023/08/29 01:07:59;;;;;;;5.75;4.07;;;;;;;14.41;100.00;92967.97;4944712;29;20047;-86
2023/08/29 01:10:52;;;;;;;7.55;4.32;;;;;;;14.42;100.00;92974.78;4930495;29;20047;-87
2023/08/29 01:13:36;;;;;;;6.67;5.07;;;;;;;13.94;100.00;92978.75;4959708;28;20048;-86
2023/08/29 01:16:02;;;;;;;;;;;;;;;13.97;100.00;92980.75;4934149;28;20101;-86
2023/08/29 01:18:30;;;;;;;6.47;4.00;;;;;;;13.97;100.00;92973.63;4947575;29;20359;-86
2023/08/29 01:21:01;;;;;;;5.25;3.97;;;;;;;14.02;100.00;92975.31;4947868;29;20058;-86
2023/08/29 01:23:40;;;;;;;4.57;3.72;;;;;;;13.95;100.00;92970.56;4947670;29;20437;-86
2023/08/29 01:26:06;;;;;;;4.70;3.65;;;;;;;14.00;100.00;92988.03;4947745;29;20453;-86
2023/08/29 01:28:31;;;;;;;6.22;3.38;;;;;;;14.08;100.00;92989.03;4947396;29;20129;-86
2023/08/29 01:30:58;;;;;;;6.05;3.67;;;;;;;14.02;100.00;92991.09;4947498;29;20443;-86
2023/08/29 01:33:24;;;;;;;5.50;3.35;;;;;;;14.11;100.00;92978.63;4947493;29;20030;-86
2023/08/29 01:35:49;;;;;;;5.93;3.22;;;;;;;14.12;100.00;92984.66;4945986;29;20396;-85
2023/08/29 01:38:17;;;;;;;5.35;3.10;;;;;;;14.11;100.00;92983.88;4945106;29;20042;-86
2023/08/29 01:40:43;;;;;;;5.80;3.58;;;;;;;14.16;100.00;92985.56;4945494;29;20047;-86
2023/08/29 01:43:09;;;;;;;6.60;3.30;;;;;;;14.14;100.00;92993.78;4945018;29;20026;-86
2023/08/29 01:45:34;;;;;;;5.80;3.35;;;;;;;14.11;100.00;92977.84;4961880;29;20039;-86
2023/08/29 01:48:00;;;;;;;5.25;3.33;;;;;;;13.96;100.00;92981.84;4962078;28;20066;-85
2023/08/29 01:50:26;;;;;;;3.47;2.80;;;;;;;14.10;100.00;92984.22;4945164;29;20039;-86
2023/08/29 01:52:52;;;;;;;6.35;3.35;;;;;;;13.94;100.00;92979.53;4925924;29;20031;-86
2023/08/29 01:55:18;;;;;;;4.75;3.20;;;;;;;13.85;100.00;92984.09;4941872;29;20188;-86
2023/08/29 01:57:44;;;;;;;5.50;3.78;;;;;;;13.63;100.00;92977.28;4941430;29;20066;-86
2023/08/29 02:00:11;;;;;;;6.68;3.42;;;;;;;14.10;100.00;92966.53;4932664;29;20044;-86
2023/08/29 02:02:38;;;;;;;4.10;3.10;;;;;;;13.86;100.00;92980.38;4922896;29;20050;-86
2023/08/29 02:05:04;;;;;;;8.32;3.38;;;;;;;13.82;100.00;92967.06;4939912;29;20023;-85
2023/08/29 02:07:29;;;;;;;6.68;3.35;;;;;;;13.53;100.00;92962.66;4939206;29;20044;-86
2023/08/29 02:09:55;;;;;;;5.25;3.20;;;;;;;13.56;100.00;92962.00;4923005;29;20043;-86
2023/08/29 02:12:20;;;;;;;6.63;3.05;;;;;;;13.64;100.00;92952.50;4939724;29;20118;-85
2023/08/29 02:14:45;;;;;;;5.90;3.20;;;;;;;13.67;100.00;92965.81;4922726;29;20036;-86
2023/08/29 02:17:11;;;;;;;3.45;2.60;;;;;;;13.51;100.00;92959.56;4922000;29;20058;-86
2023/08/29 02:19:36;;;;;;;4.95;3.20;;;;;;;13.47;100.00;92959.44;4922358;29;20032;-86
2023/08/29 02:22:01;;;;;;;4.22;2.72;;;;;;;13.65;100.00;92960.09;4922156;29;20046;-86
2023/08/29 02:24:27;;;;;;;5.45;3.17;;;;;;;13.51;100.00;92947.19;4922108;29;20028;-85
2023/08/29 02:26:53;;;;;;;6.68;2.70;;;;;;;13.70;100.00;92951.22;4938833;29;20023;-87
2023/08/29 02:29:18;;;;;;;4.20;2.60;;;;;;;13.69;100.00;92947.03;4922509;29;20042;-86
2023/08/29 02:31:44;;;;;;;6.88;2.78;;;;;;;13.61;100.00;92945.25;4922452;29;20047;-86
2023/08/29 02:34:09;;;;;;;4.10;2.90;;;;;;;13.53;100.00;92944.25;4906596;29;20036;-86
2023/08/29 02:36:34;;;;;;;4.07;2.78;;;;;;;13.54;100.00;92937.88;4922236;29;20134;-86
2023/08/29 02:39:00;;;;;;;3.35;2.47;;;;;;;13.46;100.00;92938.69;4939029;29;20042;-86
2023/08/29 02:41:25;;;;;;;4.03;3.03;;;;;;;13.56;100.00;92944.38;4922173;29;20043;-87
2023/08/29 02:43:51;;;;;;;7.18;2.90;;;;;;;13.55;100.00;92949.94;4939140;29;20034;-86
2023/08/29 02:46:16;;;;;;;5.68;2.60;;;;;;;13.58;100.00;92938.78;4922257;29;20051;-86
2023/08/29 02:48:41;;;;;;;3.13;2.30;;;;;;;13.53;100.00;92944.25;4938968;29;20122;-87
2023/08/29 02:51:07;;;;;;;7.93;2.40;;;;;;;13.50;100.00;92939.63;4922326;29;20349;-86
2023/08/29 02:53:32;;;;;;;3.78;2.70;;;;;;;13.60;100.00;92944.47;4938913;29;20047;-86
2023/08/29 02:55:58;;;;;;;4.85;2.60;;;;;;;13.56;100.00;92944.38;4922213;29;20361;-86
2023/08/29 02:58:23;;;;;;;5.72;2.50;;;;;;;13.67;100.00;92950.03;4921294;29;20079;-86
2023/08/29 03:00:56;;;;;;;5.80;2.92;;;;;;;13.49;100.00;92946.72;4939012;29;20035;-86
2023/08/29 03:03:22;;;;;;;;;;;;;;;13.45;100.00;92945.06;4921971;29;20039;-86
2023/08/29 03:05:57;;;;;;;5.22;2.75;;;;;;;13.49;100.00;92949.38;4938527;29;20229;-86
2023/08/29 03:08:23;;;;;;;4.72;3.47;;;;;;;13.36;100.00;92943.25;4905098;29;20101;-86
2023/08/29 03:10:49;;;;;;;4.50;2.90;;;;;;;13.36;100.00;92935.34;4921559;29;20049;-86
2023/08/29 03:13:15;;;;;;;6.13;3.83;;;;;;;13.26;100.00;92941.72;4921678;29;20043;-86
2023/08/29 03:15:40;;;;;;;5.22;2.97;;;;;;;13.49;100.00;92943.34;4921563;29;20035;-86
2023/08/29 03:18:06;;;;;;;6.30;3.33;;;;;;;13.46;100.00;92943.97;4905315;29;20038;-87
2023/08/29 03:20:32;;;;;;;3.92;2.85;;;;;;;13.53;100.00;92942.38;4938853;29;20036;-87
2023/08/29 03:22:57;;;;;;;7.28;3.88;;;;;;;13.56;100.00;92936.47;4921513;29;20453;-86
2023/08/29 03:25:23;;;;;;;4.47;3.10;;;;;;;13.61;100.00;92940.75;4905787;29;20034;-86
2023/08/29 03:27:49;;;;;;;8.60;3.08;;;;;;;13.49;100.00;92941.47;4920883;29;20039;-86
2023/08/29 03:30:14;;;;;;;2.40;2.10;;;;;;;13.65;100.00;92936.41;4921476;29;20039;-86
2023/08/29 03:32:40;;;;;;;4.85;2.88;;;;;;;13.84;100.00;92943.84;4938597;29;20481;-86
2023/08/29 03:35:05;;;;;;;2.92;2.45;;;;;;;13.68;100.00;92946.28;4938136;29;20039;-86
2023/08/29 03:37:31;;;;;;;5.72;3.05;;;;;;;13.86;100.00;92948.78;4920924;29;20047;-86
2023/08/29 03:39:56;;;;;;;4.43;2.50;;;;;;;13.95;100.00;92933.69;4920727;29;20126;-86
2023/08/29 03:42:22;;;;;;;5.10;2.88;;;;;;;13.90;100.00;92935.75;4921036;29;20086;-86
2023/08/29 03:44:47;;;;;;;5.10;2.88;;;;;;;14.00;100.00;92940.63;4937971;29;20106;-86
2023/08/29 03:47:12;;;;;;;4.30;2.88;;;;;;;13.98;100.00;92942.78;4920036;29;20465;-86
2023/08/29 03:49:38;;;;;;;3.70;2.63;;;;;;;13.97;100.00;92936.78;4937669;29;20087;-86
2023/08/29 03:52:03;;;;;;;4.50;2.55;;;;;;;14.06;100.00;92933.28;4937771;29;20118;-86
2023/08/29 03:54:30;;;;;;;4.47;2.10;;;;;;;14.20;100.00;92939.06;4920392;29;20091;-86
2023/08/29 03:56:55;;;;;;;6.00;2.80;;;;;;;13.94;100.00;92939.28;4920417;29;20090;-87
2023/08/29 03:59:20;;;;;;;3.72;2.55;;;;;;;14.03;100.00;92947.09;4920865;29;20028;-86
2023/08/29 04:01:46;;;;;;;3.05;2.30;;;;;;;14.00;100.00;92948.53;4938034;29;20090;-86
2023/08/29 04:04:11;;;;;;;8.57;2.60;;;;;;;14.10;100.00;92947.34;4904847;29;20048;-86
2023/08/29 04:06:37;;;;;;;3.95;2.42;;;;;;;14.18;100.00;92958.91;4937780;29;20357;-86
2023/08/29 04:09:08;;;;;;;6.22;2.30;;;;;;;14.13;100.00;92960.66;4929832;29;20456;-85
2023/08/29 04:11:34;;;;;;;4.35;2.30;;;;;;;14.21;100.00;92966.94;4942390;29;20030;-86
2023/08/29 04:14:01;;;;;;;4.80;2.20;;;;;;;14.40;100.00;92968.31;4941814;29;20035;-86
2023/08/29 04:16:26;;;;;;;6.43;2.17;;;;;;;14.03;100.00;92971.56;4940976;29;20154;-87
2023/08/29 04:18:51;;;;;;;3.72;2.75;;;;;;;13.64;100.00;92966.47;4941782;29;20130;-87
2023/08/29 04:21:17;;;;;;;3.97;2.45;;;;;;;13.92;100.00;92967.78;4941563;29;20039;-87
2023/08/29 04:23:42;;;;;;;6.13;2.35;;;;;;;13.60;100.00;92962.91;4959103;29;20031;-86
2023/08/29 04:26:09;;;;;;;3.33;2.25;;;;;;;13.40;100.00;92956.50;4958563;29;20041;-87
2023/08/29 04:28:35;;;;;;;4.30;2.45;;;;;;;13.23;100.00;92957.41;4941559;29;20042;-87
2023/08/29 04:31:08;;;;;;;3.75;2.55;;;;;;;13.13;100.00;92966.41;4941635;29;20037;-87
2023/08/29 04:33:33;;;;;;;4.28;2.38;;;;;;;13.26;100.00;92967.28;4941601;29;20031;-86
2023/08/29 04:36:04;;;;;;;3.95;2.38;;;;;;;13.46;100.00;92973.69;4941639;29;20460;-86
2023/08/29 04:38:31;;;;;;;3.67;2.28;;;;;;;13.19;100.00;92977.50;4941355;29;20038;-86
2023/08/29 04:40:56;;;;;;;7.82;2.60;;;;;;;13.46;100.00;92988.69;4941751;29;20338;-87
2023/08/29 04:43:22;;;;;;;4.13;2.33;;;;;;;13.35;100.00;92983.78;4958740;29;20039;-86
2023/08/29 04:45:49;;;;;;;4.68;2.00;;;;;;;13.49;100.00;92988.06;4958662;29;20039;-87
2023/08/29 04:48:14;;;;;;;5.25;2.20;;;;;;;13.33;100.00;92982.56;4941628;29;20031;-87
2023/08/29 04:50:40;;;;;;;4.47;2.70;;;;;;;13.15;100.00;92990.53;4941821;29;20031;-87
2023/08/29 04:53:05;;;;;;;3.67;2.42;;;;;;;13.17;100.00;92984.94;4941882;29;20353;-87
2023/08/29 04:55:31;;;;;;;7.25;2.17;;;;;;;13.31;100.00;92980.22;4958898;29;20094;-87
2023/08/29 04:57:57;;;;;;;2.65;1.80;;;;;;;13.53;100.00;92986.34;4958701;29;20066;-87
2023/08/29 05:00:23;;;;;;;2.83;1.63;;;;;;;13.68;100.00;92988.41;4941793;29;20129;-87
2023/08/29 05:02:48;;;;;;;2.05;1.30;;;;;;;13.45;100.00;92979.25;4940163;29;20123;-86
2023/08/29 05:05:14;;;;;;;4.28;1.98;;;;;;;13.30;100.00;92983.94;4925492;29;20031;-86
2023/08/29 05:07:39;;;;;;;6.70;2.38;;;;;;;12.92;100.00;92980.25;4940979;29;20031;-86
2023/08/29 05:10:06;;;;;;;3.88;1.90;;;;;;;13.51;100.00;92984.00;4958435;29;20039;-88
2023/08/29 05:12:32;;;;;;;2.17;1.83;;;;;;;13.45;100.00;92968.72;4925843;29;20126;-87
2023/08/29 05:14:57;;;;;;;2.17;1.60;;;;;;;13.54;100.00;92977.34;4958599;29;20126;-87
2023/08/29 05:17:23;;;;;;;2.70;1.60;;;;;;;13.89;100.00;92971.81;4941439;29;20382;-87
2023/08/29 05:19:49;;;;;;;3.67;1.33;;;;;;;14.25;100.00;92973.09;4941550;29;20315;-86
2023/08/29 05:22:15;;;;;;;3.03;1.67;;;;;;;13.73;100.00;92968.25;4941205;29;20449;-87
2023/08/29 05:24:40;;;;;;;1.85;1.30;;;;;;;14.46;100.00;92961.72;4941002;29;20035;-87
2023/08/29 05:27:05;;;;;;;3.10;1.65;;;;;;;14.46;100.00;92961.72;4942729;29;20035;-87
2023/08/29 05:29:31;;;;;;;1.55;1.27;;;;;;;14.47;100.00;92957.22;4961988;29;20035;-86
2023/08/29 05:31:56;;;;;;;4.07;1.58;;;;;;;14.67;100.00;92953.00;4944619;29;20027;-87
2023/08/29 05:34:22;;;;;;;7.78;1.65;;;;;;;14.73;100.00;92951.69;4962061;29;20046;-87
2023/08/29 05:36:49;;;;;;;4.60;1.27;;;;;;;14.72;100.00;92963.34;4944936;29;20166;-87
2023/08/29 05:39:15;;;;;;;3.55;1.63;;;;;;;14.67;100.00;92955.63;4944520;29;20039;-87
2023/08/29 05:41:40;;;;;;;2.90;1.50;;;;;;;14.38;100.00;92962.59;4944923;29;20046;-87
2023/08/29 05:44:06;;;;;;;2.90;1.75;;;;;;;14.69;100.00;92959.44;4961943;29;20038;-87
2023/08/29 05:46:31;;;;;;;1.65;1.10;;;;;;;14.97;100.00;92958.84;4928663;29;20039;-87
2023/08/29 05:48:59;;;;;;;4.05;1.48;;;;;;;15.03;100.00;92964.69;4944634;29;20360;-86
2023/08/29 05:51:24;;;;;;;1.48;0.93;;;;;;;15.34;100.00;92963.34;4961519;29;20086;-87
2023/08/29 05:53:49;;;;;;;3.47;1.00;;;;;;;15.64;100.00;92965.75;4944478;29;20039;-89
2023/08/29 05:56:17;;;;;;;2.30;1.33;;;;;;;15.19;100.00;92969.28;4944599;29;20438;-89
2023/08/29 05:58:42;;;;;;;4.40;1.20;;;;;;;15.20;100.00;92971.63;4961686;29;20031;-88
2023/08/29 06:01:09;;;;;;;3.03;1.60;;;;;;;15.31;100.00;92982.50;4944532;29;20082;-87
2023/08/29 06:03:34;;;;;;;4.00;1.15;;;;;;;14.61;100.00;92986.69;4944378;29;20037;-88
2023/08/29 06:06:03;;;;;;;3.28;1.30;;;;;;;14.35;100.00;92995.63;4961135;29;20345;-90
2023/08/29 06:08:29;;;;;;;1.38;1.00;;;;;;;14.43;100.00;92986.09;4944093;29;20027;-89
2023/08/29 06:10:54;;;;;;;3.97;1.33;;;;;;;14.52;100.00;92991.28;4955338;29;20047;-88
2023/08/29 06:13:20;;;;;;;1.58;1.30;;;;;;;14.65;100.00;92986.81;4943992;29;20089;-89
2023/08/29 06:15:45;;;;;;;3.95;1.30;;;;;;;14.47;100.00;92989.59;4944159;29;20039;-88
2023/08/29 06:18:11;;;;;;;3.72;1.27;;;;;;;14.42;100.00;92997.72;4943829;29;20035;-88
2023/08/29 06:20:36;;;;;;;2.67;1.02;;;;;;;14.07;100.00;92990.91;4961422;29;20162;-86
2023/08/29 06:23:03;;;;;;;1.50;1.10;;;;;;;14.48;100.00;93000.94;4943876;29;20065;-87
2023/08/29 06:25:29;;;;;;;4.32;0.90;;;;;;;14.92;100.00;92997.84;4944171;29;20035;-87
2023/08/29 06:27:54;;;;;;;1.33;0.90;;;;;;;14.50;100.00;92998.72;4943679;29;20039;-88
2023/08/29 06:30:20;;;;;;;1.92;1.00;;;;;;;14.54;100.00;93003.03;4943827;29;20043;-88
2023/08/29 06:32:45;;;;;;;1.98;1.05;;;;;;;14.28;100.00;93001.41;4943560;29;20043;-87
2023/08/29 06:35:11;;;;;;;1.95;0.88;;;;;;;14.25;100.00;93004.69;4960973;29;20035;-88
2023/08/29 06:37:37;;;;;;;3.60;1.00;;;;;;;14.49;100.00;93008.53;4960657;28;20349;-88
2023/08/29 06:40:04;;;;;;;1.50;0.70;;;;;;;14.66;100.00;93007.56;4943089;29;20070;-88
2023/08/29 06:42:31;;;;;;;1.13;0.65;;;;;;;14.00;100.00;93003.81;4943791;29;20421;-89
2023/08/29 06:44:58;;;;;;;3.25;0.75;;;;;;;14.14;100.00;93008.81;4943778;29;20035;-88
2023/08/29 06:47:25;;;;;;;1.52;0.90;;;;;;;14.02;100.00;93006.13;4943709;29;20050;-87
2023/08/29 06:49:54;;;;;;;2.10;1.00;;;;;;;14.04;100.00;93025.00;4943705;29;20046;-87
2023/08/29 06:52:20;;;;;;;1.52;0.82;;;;;;;14.30;100.00;93027.44;4944180;29;20425;-87
2023/08/29 06:54:45;;;;;;;1.20;0.98;;;;;;;14.29;100.00;93020.63;4936693;29;20043;-87
2023/08/29 06:57:13;;;;;;;4.05;1.40;;;;;;;13.98;100.00;93014.66;4960122;29;20044;-88
2023/08/29 06:59:46;;;;;;;5.82;1.63;;;;;;;14.14;100.00;93024.63;4922804;29;20142;-88
2023/08/29 07:02:12;;;;;;;1.70;1.08;;;;;;;14.35;100.00;93018.56;4924498;29;20074;-89
2023/08/29 07:04:37;;;;;;;4.63;1.73;;;;;;;14.14;100.00;93016.72;4908393;29;20375;-88
2023/08/29 07:07:02;;;;;;;7.70;1.98;;;;;;;14.24;100.00;93020.81;4924087;29;20031;-88
2023/08/29 07:09:30;;;;;;;3.45;1.90;;;;;;;14.23;100.00;93025.31;4941463;29;20353;-89
2023/08/29 07:11:56;;;;;;;10.48;1.63;;;;;;;14.34;100.00;93019.63;4924687;29;20046;-87
2023/08/29 07:14:21;;;;;;;4.55;1.85;;;;;;;14.17;100.00;93023.22;4924212;29;20103;-87
2023/08/29 07:16:47;;;;;;;6.43;1.77;;;;;;;14.34;100.00;93023.06;4941223;29;20036;-86
2023/08/29 07:19:12;;;;;;;2.85;1.42;;;;;;;14.26;100.00;93034.44;4923736;29;20102;-87
2023/08/29 07:21:38;;;;;;;6.63;1.83;;;;;;;14.20;100.00;93028.59;4924022;29;20035;-87
2023/08/29 07:24:04;;;;;;;4.57;1.95;;;;;;;14.17;100.00;93039.00;4908146;29;20027;-86
2023/08/29 07:26:30;;;;;;;3.88;1.50;;;;;;;14.39;100.00;93030.75;4907963;29;20103;-85
2023/08/29 07:28:55;;;;;;;2.97;1.48;;;;;;;14.56;100.00;93043.00;4940544;29;20035;-88
2023/08/29 07:31:21;;;;;;;4.15;1.52;;;;;;;14.24;100.00;93040.03;4923945;29;20066;-88
2023/08/29 07:33:46;;;;;;;3.70;1.70;;;;;;;14.43;100.00;93049.31;4930250;29;20856;-88
2023/08/29 07:36:12;;;;;;;3.15;1.40;;;;;;;14.76;100.00;93045.94;4923453;29;20040;-87
2023/08/29 07:38:37;;;;;;;3.38;0.82;;;;;;;14.51;100.00;93053.75;4940648;29;20114;-86
2023/08/29 07:41:02;;;;;;;1.75;0.80;;;;;;;14.35;100.00;93055.47;4914386;29;20037;-87
2023/08/29 07:43:28;;;;;;;2.35;0.80;;;;;;;14.37;100.00;93042.72;4926726;29;20034;-85
2023/08/29 07:45:53;;;;;;;2.92;0.80;;;;;;;14.08;100.00;93050.38;4959251;29;20069;-85
2023/08/29 07:48:20;;;;;;;2.63;0.73;;;;;;;14.41;100.00;93059.41;4942153;29;20464;-85
2023/08/29 07:50:45;;;;;;;0.98;0.70;;;;;;;14.62;100.00;93053.34;4941347;29;20334;-85
2023/08/29 07:53:10;;;;;;;0.77;0.70;;;;;;;15.23;100.00;93044.06;4926291;29;20078;-87
2023/08/29 07:55:36;;;;;;;0.80;0.50;;;;;;;16.21;100.00;93044.31;4926305;29;20413;-85
2023/08/29 07:58:04;;;;;;;5.70;1.17;;;;;;;16.68;100.00;93051.63;4926196;29;20027;-86
2023/08/29 08:00:29;;;;;;;1.42;0.30;;;;;;;16.17;100.00;93049.50;4926206;29;20027;-85
2023/08/29 08:02:55;;;;;;;0.60;0.30;;;;;;;16.29;100.00;93069.84;4959260;29;20043;-87
2023/08/29 08:05:20;;;;;;;0.45;0.20;;;;;;;15.69;100.00;93062.41;4942267;29;20345;-87
2023/08/29 08:07:51;;;;;;;0.82;0.40;;;;;;;15.59;100.00;93061.00;4941814;29;20031;-86
2023/08/29 08:10:17;;;;;;;1.27;0.38;;;;;;;16.16;100.00;93071.72;4941995;29;20042;-86
2023/08/29 08:12:45;;;;;;;0.88;0.20;;;;;;;16.20;100.00;93066.56;4942112;29;20047;-85
2023/08/29 08:15:10;;;;;;;0.70;0.38;;;;;;;15.46;100.00;93068.16;4942187;29;20136;-86
2023/08/29 08:17:37;;;;;;;0.50;0.20;;;;;;;15.76;100.00;93075.06;4941505;29;20062;-87
2023/08/29 08:20:07;;;;;;;0.93;0.10;;;;;;;15.97;100.00;93081.03;4925540;29;20042;-86
2023/08/29 08:22:36;;;;;;;1.70;0.20;;;;;;;15.09;100.00;93070.75;4958741;29;20425;-85
2023/08/29 08:25:02;;;;;;;0.20;0.20;;;;;;;15.41;100.00;93071.78;4942116;29;20118;-85
2023/08/29 08:27:29;;;;;;;0.30;0.30;;;;;;;15.12;100.00;93081.41;4941763;29;20125;-84
2023/08/29 08:29:55;;;;;;;0.45;0.25;;;;;;;14.61;100.00;93084.22;4958889;29;20067;-85
2023/08/29 08:32:20;;;;;;;0.80;0.40;;;;;;;14.65;100.00;93084.34;4925896;29;20493;-86
2023/08/29 08:34:46;;;;;;;0.50;0.15;;;;;;;14.30;100.00;93088.03;4941982;29;20456;-84
2023/08/29 08:37:11;;;;;;;1.00;0.20;;;;;;;15.01;100.00;93082.94;4941196;29;20094;-84
2023/08/29 08:39:36;;;;;;;0.20;0.10;;;;;;;15.12;100.00;93091.97;4925640;29;20138;-84
2023/08/29 08:42:02;;;;;;;0.15;0.10;;;;;;;15.10;100.00;93090.75;4958780;29;20353;-84
2023/08/29 08:44:30;;;;;;;1.08;0.32;;;;;;;15.41;100.00;93089.47;4941843;29;20032;-84
2023/08/29 08:46:57;;;;;;;0.73;0.50;;;;;;;15.74;100.00;93090.47;4934940;29;20035;-84
2023/08/29 08:49:22;;;;;;;1.80;0.63;;;;;;;15.36;100.00;93094.97;4945500;29;20035;-85
2023/08/29 08:51:48;;;;;;;0.38;0.32;;;;;;;15.51;100.00;93086.41;4941517;29;20042;-85
2023/08/29 08:54:14;;;;;;;2.92;1.65;;;;;;;15.32;100.00;93094.84;4941539;29;20086;-85
2023/08/29 08:56:40;;;;;;;1.23;0.20;;;;;;;14.77;100.00;93094.19;4941862;29;20122;-86
2023/08/29 08:59:06;;;;;;;1.88;0.40;;;;;;;15.30;100.00;93102.31;4925827;29;20028;-86
2023/08/29 09:01:31;;;;;;;0.50;0.22;;;;;;;15.27;100.00;93093.19;4942742;29;20440;-86
2023/08/29 09:03:57;;;;;;;0.15;0.10;;;;;;;15.34;100.00;93095.28;4929274;29;20381;-85
2023/08/29 09:06:22;;;;;;;0.50;0.20;;;;;;;15.80;100.00;93100.47;4945286;29;20118;-86
2023/08/29 09:08:48;;;;;;;0.70;0.22;;;;;;;16.19;100.00;93102.78;4928966;29;20050;-85
2023/08/29 09:11:17;;;;;;;0.10;0.10;;;;;;;16.47;100.00;93103.94;4929350;29;20027;-85
2023/08/29 09:13:47;;;;;;;2.33;0.32;;;;;;;16.02;100.00;93101.16;4944995;29;20035;-84
2023/08/29 09:16:16;;;;;;;0.10;0.10;;;;;;;16.24;100.00;93107.84;4944797;29;20049;-84
2023/08/29 09:18:48;;;;;;;3.67;0.98;;;;;;;15.98;100.00;93105.56;4944741;29;20031;-85
2023/08/29 09:21:21;;;;;;;5.30;1.50;;;;;;;15.97;100.00;93112.72;4944743;29;20039;-85
2023/08/29 09:23:47;;;;;;;3.58;0.20;;;;;;;16.09;100.00;93111.94;4961852;29;20028;-85
2023/08/29 09:26:12;;;;;;;0.20;0.10;;;;;;;16.20;100.00;93117.53;4962081;29;20086;-84
2023/08/29 09:28:39;;;;;;;0.20;0.20;;;;;;;15.26;100.00;93125.94;4961574;29;20511;-85
2023/08/29 09:31:06;;;;;;;0.32;0.10;;;;;;;15.59;100.00;93123.59;4944845;29;20043;-87
2023/08/29 09:33:32;;;;;;;2.28;0.35;;;;;;;15.32;100.00;93113.31;4944747;29;20069;-85
2023/08/29 09:36:01;;;;;;;0.05;0.05;;;;;;;16.09;100.00;93116.47;4944549;29;20142;-85
2023/08/29 09:38:29;;;;;;;0.75;0.20;;;;;;;16.04;100.00;93114.03;4961714;29;20039;-85
2023/08/29 09:40:55;;;;;;;0.20;0.10;;;;;;;15.90;100.00;93111.75;4944766;29;20208;-85
2023/08/29 09:43:21;;;;;;;2.22;0.30;;;;;;;15.02;100.00;93118.75;4961744;29;20042;-85
2023/08/29 09:45:52;;;;;;;0.40;0.10;;;;;;;14.85;100.00;93132.88;4944628;29;20039;-86
2023/08/29 09:48:20;;;;;;;0.28;0.10;;;;;;;14.28;100.00;93124.47;4944211;29;20038;-87
2023/08/29 09:50:47;;;;;;;0.25;0.15;;;;;;;14.00;100.00;93124.94;4945502;29;20043;-86
2023/08/29 09:53:20;;;;;;;4.03;0.40;;;;;;;13.87;100.00;93134.59;4928435;29;20456;-85
2023/08/29 09:55:59;;;;;;;0.28;0.20;;;;;;;14.14;100.00;93137.88;4944363;29;20047;-85
2023/08/29 09:58:27;;;;;;;1.55;0.20;;;;;;;14.45;100.00;93147.25;4928042;29;20031;-84
2023/08/29 10:00:53;;;;;;;0.30;0.20;;;;;;;14.22;100.00;93144.97;4942096;29;20057;-85
2023/08/29 10:03:18;;;;;;;0.60;0.15;;;;;;;14.04;100.00;93151.41;4944036;29;20035;-85
2023/08/29 10:05:45;;;;;;;0.28;0.20;;;;;;;14.02;100.00;93154.38;4944301;29;20035;-86
2023/08/29 10:08:31;;;;;;;1.90;0.30;;;;;;;13.73;100.00;93148.00;4943914;29;20082;-84
2023/08/29 10:10:56;;;;;;;0.30;0.25;;;;;;;13.91;100.00;93153.19;4944298;29;20035;-85
2023/08/29 10:13:23;;;;;;;0.22;0.20;;;;;;;14.08;100.00;93144.41;4943183;29;20126;-85
2023/08/29 10:15:49;;;;;;;0.57;0.10;;;;;;;14.27;100.00;93157.16;4961206;29;20106;-84
2023/08/29 10:18:15;;;;;;;3.92;0.43;;;;;;;14.00;100.00;93141.50;4943667;29;20047;-85
2023/08/29 10:20:45;;;;;;;0.45;0.32;;;;;;;14.62;100.00;93146.38;4961072;29;20065;-86
2023/08/29 10:23:11;;;;;;;0.80;0.40;;;;;;;15.07;100.00;93146.78;4928342;29;20042;-86
2023/08/29 10:25:38;;;;;;;0.20;0.20;;;;;;;14.76;100.00;93140.84;4944260;29;20039;-86
2023/08/29 10:28:05;;;;;;;1.42;0.40;;;;;;;14.92;100.00;93145.53;4960897;29;20046;-85
2023/08/29 10:30:31;;;;;;;2.38;0.88;;;;;;;14.87;100.00;93149.16;4961225;29;20046;-85
2023/08/29 10:32:57;;;;;;;2.03;1.17;;;;;;;14.97;100.00;93143.47;4960841;29;20050;-85
2023/08/29 10:35:22;;;;;;;5.53;1.65;;;;;;;14.52;100.00;93152.03;4943715;29;20360;-84
2023/08/29 10:37:51;;;;;;;2.35;1.50;;;;;;;14.87;100.00;93154.44;4960685;29;20043;-84
2023/08/29 10:40:18;;;;;;;2.35;1.40;;;;;;;14.32;100.00;93151.72;4943530;29;20093;-85
2023/08/29 10:42:55;;;;;;;3.78;1.70;;;;;;;14.50;100.00;93167.38;4943506;29;20050;-86
2023/08/29 10:45:22;;;;;;;1.95;1.55;;;;;;;14.47;100.00;93168.03;4943683;29;20035;-86
2023/08/29 10:47:47;;;;;;;5.97;2.17;;;;;;;14.32;100.00;93164.09;4927170;29;20031;-87
2023/08/29 10:50:33;;;;;;;7.68;2.15;;;;;;;14.22;100.00;93168.66;4927458;29;20042;-87
2023/08/29 10:52:59;;;;;;;4.88;1.95;;;;;;;14.53;100.00;93172.81;4944021;29;20034;-86
2023/08/29 10:55:31;;;;;;;4.53;2.20;;;;;;;14.63;100.00;93166.38;4942895;29;20061;-86
2023/08/29 10:57:58;;;;;;;3.42;2.00;;;;;;;14.81;100.00;93166.25;4960055;29;20035;-86
2023/08/29 11:00:42;;;;;;;2.05;1.80;;;;;;;14.78;100.00;93167.69;4924334;29;20107;-86
2023/08/29 11:03:07;;;;;;;;;;;;;;;14.82;100.00;93168.56;4941529;29;20036;-85
2023/08/29 11:05:37;;;;;;;1.70;1.17;;;;;;;14.95;100.00;93160.72;4939760;29;19933;-87
2023/08/29 11:08:29;;;;;;;4.57;1.60;;;;;;;14.94;100.00;93164.44;4914984;29;20046;-86
2023/08/29 11:11:14;;;;;;;3.20;1.75;;;;;;;15.16;100.00;93160.69;4940597;29;20058;-87
2023/08/29 11:13:59;;;;;;;2.53;1.30;;;;;;;15.06;100.00;93156.59;4931945;29;20034;-87
2023/08/29 11:16:37;;;;;;;1.27;1.15;;;;;;;15.06;100.00;93155.81;4960282;29;20053;-86
2023/08/29 11:19:09;;;;;;;1.50;1.00;;;;;;;14.99;100.00;93156.34;4943375;29;20031;-85
2023/08/29 11:21:35;;;;;;;0.80;0.80;;;;;;;14.95;100.00;93145.66;4939287;29;20031;-86
2023/08/29 11:24:00;;;;;;;1.42;0.88;;;;;;;15.16;100.00;93157.25;4907627;29;20034;-86
2023/08/29 11:26:26;;;;;;;1.63;1.00;;;;;;;15.17;100.00;93150.88;4925308;29;20086;-87